Time;durP1;ratioP1;P1;durP2;ratioP2;P2;SDS_P1;SDS_P2;PMS_P1;PMS_P2;Temp;Humidity;BMP_temperature;BMP_pressure;BME280_temperature;BME280_humidity;BME280_pressure;Samples;Min_cycle;Max_cycle;Signal;HPM_P1;HPM_P2
2022/04/25 00:01:30;;;;;;;;;;;;;;;14.37;49.25;101022.53;5033526;28;19921;-67
2022/04/25 00:03:56;;;;;;;;;;;;;;;14.69;48.59;101020.06;5033471;28;19940;-69
2022/04/25 00:06:21;;;;;;;;;;;;;;;14.34;49.04;101020.34;5033470;28;20384;-68
2022/04/25 00:08:46;;;;;;;;;;;;;;;14.32;49.32;101018.94;5032393;28;20467;-67
2022/04/25 00:11:12;;;;;;;;;;;;;;;14.13;50.29;101014.81;5033491;28;19920;-69
2022/04/25 00:13:37;;;;;;;;;;;;;;;14.64;48.48;101023.50;5032682;28;19955;-67
2022/04/25 00:16:02;;;;;;;;;;;;;;;14.38;49.50;101023.38;5064438;28;19921;-69
2022/04/25 00:18:27;;;;;;;;;;;;;;;14.52;49.03;101019.28;5032754;28;19919;-69
2022/04/25 00:20:55;;;;;;;;;;;;;;;14.28;49.75;101021.31;5033464;28;19912;-68
2022/04/25 00:23:20;;;;;;;;;;;;;;;14.40;49.08;101023.94;5032518;28;20004;-68
2022/04/25 00:25:45;;;;;;;;;;;;;;;14.22;50.20;101026.84;5033084;28;19959;-68
2022/04/25 00:28:11;;;;;;;;;;;;;;;14.76;48.20;101018.03;5032822;28;19925;-67
2022/04/25 00:30:36;;;;;;;;;;;;;;;14.25;50.09;101024.47;5032456;28;19909;-68
2022/04/25 00:33:02;;;;;;;;;;;;;;;13.92;51.14;101033.34;5033256;28;19913;-67
2022/04/25 00:35:27;;;;;;;;;;;;;;;15.02;48.13;101019.22;5032837;28;19913;-67
2022/04/25 00:37:53;;;;;;;;;;;;;;;14.69;48.50;101020.06;5032787;28;19924;-69
2022/04/25 00:40:19;;;;;;;;;;;;;;;14.66;48.33;101021.38;5032645;28;19921;-71
2022/04/25 00:42:44;;;;;;;;;;;;;;;14.63;48.73;101024.59;5032647;28;19916;-68
2022/04/25 00:45:10;;;;;;;;;;;;;;;14.59;48.54;101017.22;5032805;28;20369;-69
2022/04/25 00:47:35;;;;;;;;;;;;;;;14.34;49.57;101014.94;5032745;28;19924;-68
2022/04/25 00:50:00;;;;;;;;;;;;;;;14.11;49.88;101021.25;5032790;28;19999;-70
2022/04/25 00:52:26;;;;;;;;;;;;;;;13.93;50.96;101018.81;5032694;28;20385;-69
2022/04/25 00:54:51;;;;;;;;;;;;;;;14.52;48.54;101016.56;5032709;28;19917;-69
2022/04/25 00:57:17;;;;;;;;;;;;;;;14.50;48.69;101016.81;5033136;28;20408;-68
2022/04/25 00:59:43;;;;;;;;;;;;;;;14.59;48.80;101017.22;5032402;28;20008;-68
2022/04/25 01:02:08;;;;;;;;;;;;;;;13.90;50.04;101010.34;5032438;28;19924;-67
2022/04/25 01:04:34;;;;;;;;;;;;;;;13.57;51.24;101013.78;5030637;28;19917;-68
2022/04/25 01:07:00;;;;;;;;;;;;;;;13.97;50.40;101008.31;5032455;28;19932;-67
2022/04/25 01:09:25;;;;;;;;;;;;;;;14.35;48.93;101003.03;5032002;28;19909;-67
2022/04/25 01:11:52;;;;;;;;;;;;;;;13.70;50.88;101007.28;5033184;28;19952;-67
2022/04/25 01:14:19;;;;;;;;;;;;;;;14.44;48.76;101008.88;5032165;28;20003;-68
2022/04/25 01:16:45;;;;;;;;;;;;;;;13.64;51.15;101006.34;5032149;28;19917;-68
2022/04/25 01:19:10;;;;;;;;;;;;;;;13.43;51.65;101004.31;5032182;28;19959;-69
2022/04/25 01:21:39;;;;;;;;;;;;;;;13.14;52.80;101002.63;5032454;28;19913;-67
2022/04/25 01:29:34;;;;;;;;;;;;;;;13.83;50.53;101010.50;5012357;28;19933;-69
2022/04/25 01:31:59;;;;;;;;;;;;;;;13.97;50.29;101000.22;5024616;28;19925;-68
2022/04/25 01:34:24;;;;;;;;;;;;;;;13.76;50.70;101009.00;5031454;28;19913;-69
2022/04/25 01:36:49;;;;;;;;;;;;;;;14.00;50.21;101002.41;5031942;28;20261;-68
2022/04/25 01:39:15;;;;;;;;;;;;;;;13.82;50.32;101008.84;5032151;28;19924;-67
2022/04/25 01:41:42;;;;;;;;;;;;;;;13.78;50.92;101010.41;5032120;28;20339;-67
2022/04/25 01:44:07;;;;;;;;;;;;;;;13.49;51.91;100997.97;5031811;28;19962;-67
2022/04/25 01:46:32;;;;;;;;;;;;;;;13.67;50.72;101007.75;5031634;28;20003;-68
2022/04/25 01:48:58;;;;;;;;;;;;;;;12.73;54.03;101003.59;5031965;28;19924;-67
2022/04/25 01:51:23;;;;;;;;;;;;;;;14.06;50.77;101004.16;5030372;28;20395;-68
2022/04/25 01:53:48;;;;;;;;;;;;;;;14.41;49.05;101012.88;5032028;28;20356;-68
2022/04/25 01:56:13;;;;;;;;;;;;;;;14.15;50.39;101004.56;5030492;28;19999;-68
2022/04/25 01:58:39;;;;;;;;;;;;;;;13.97;51.06;101006.41;5031748;28;19921;-67
2022/04/25 02:01:07;;;;;;;;;;;;;;;13.54;52.18;101005.34;5031743;28;19963;-68
2022/04/25 02:03:34;;;;;;;;;;;;;;;12.86;54.82;101019.53;5031513;28;19917;-68
2022/04/25 02:06:00;;;;;;;;;;;;;;;13.51;52.94;101013.91;5032352;28;19916;-68
2022/04/25 02:08:25;;;;;;;;;;;;;;;13.20;53.21;101010.63;5031841;28;19916;-69
2022/04/25 02:13:34;;;;;;;;;;;;;;;13.61;52.36;101009.53;5031611;28;19998;-66
2022/04/25 02:15:59;;;;;;;;;;;;;;;14.18;50.85;101006.78;5031549;28;20380;-67
2022/04/25 02:18:25;;;;;;;;;;;;;;;14.34;50.64;101003.31;5031511;28;19916;-69
2022/04/25 02:20:50;;;;;;;;;;;;;;;14.27;50.47;101008.03;5066365;28;19924;-67
2022/04/25 02:23:16;;;;;;;;;;;;;;;14.20;51.23;101007.34;5035551;28;19916;-69
2022/04/25 02:25:42;;;;;;;;;;;;;;;14.59;50.98;101007.22;5035598;28;19963;-68
2022/04/25 02:28:07;;;;;;;;;;;;;;;14.76;50.46;101010.72;5034022;28;19917;-67
2022/04/25 02:30:32;;;;;;;;;;;;;;;14.33;51.26;101007.09;5035020;28;19913;-68
2022/04/25 02:32:57;;;;;;;;;;;;;;;14.01;52.14;101006.78;5036044;28;19920;-67
2022/04/25 02:35:23;;;;;;;;;;;;;;;13.79;52.58;101017.44;5035326;28;20313;-68
2022/04/25 02:37:48;;;;;;;;;;;;;;;14.04;52.23;101012.50;5035271;28;19919;-68
2022/04/25 02:40:13;;;;;;;;;;;;;;;14.41;51.48;101015.59;5034984;28;20449;-69
2022/04/25 02:42:38;;;;;;;;;;;;;;;14.38;51.38;101023.38;5035060;28;20684;-67
2022/04/25 02:45:05;;;;;;;;;;;;;;;14.46;51.25;101022.97;5033298;28;19917;-66
2022/04/25 02:47:30;;;;;;;;;;;;;;;14.45;51.72;101021.31;5035164;28;19960;-69
2022/04/25 02:49:55;;;;;;;;;;;;;;;14.63;51.48;101023.78;5035072;28;19956;-68
2022/04/25 02:52:21;;;;;;;;;;;;;;;14.10;52.56;101024.22;5035006;28;19924;-69
2022/04/25 02:54:46;;;;;;;;;;;;;;;14.37;51.94;101029.84;5034844;28;19913;-69
2022/04/25 02:57:11;;;;;;;;;;;;;;;14.02;52.75;101033.53;5035271;28;19979;-69
2022/04/25 02:59:36;;;;;;;;;;;;;;;13.75;53.41;101026.28;5034653;28;20353;-68
2022/04/25 03:02:02;;;;;;;;;;;;;;;13.83;53.91;101034.81;5034808;28;19947;-68
2022/04/25 03:04:27;;;;;;;;;;;;;;;13.93;53.98;101034.19;5034811;28;19917;-70
2022/04/25 03:06:54;;;;;;;;;;;;;;;14.41;52.40;101036.38;5033483;28;20437;-69
2022/04/25 03:09:20;;;;;;;;;;;;;;;13.92;54.21;101037.94;5034852;28;19913;-68
2022/04/25 03:11:45;;;;;;;;;;;;;;;14.16;53.31;101031.34;5035155;28;19921;-69
2022/04/25 03:14:11;;;;;;;;;;;;;;;14.82;51.24;101031.38;5034611;28;19943;-69
2022/04/25 03:16:36;;;;;;;;;;;;;;;14.27;53.13;101038.56;5034107;28;19917;-69
2022/04/25 03:19:01;;;;;;;;;;;;;;;14.49;52.27;101030.56;5034477;28;20532;-68
2022/04/25 03:21:26;;;;;;;;;;;;;;;14.77;51.93;101027.78;5034488;28;19913;-68
2022/04/25 03:23:53;;;;;;;;;;;;;;;15.24;50.79;101025.44;5034999;28;19917;-67
2022/04/25 03:26:18;;;;;;;;;;;;;;;15.11;51.30;101036.66;5034066;28;20333;-68
2022/04/25 03:28:43;;;;;;;;;;;;;;;14.69;51.96;101037.13;5034171;28;19953;-67
2022/04/25 03:31:09;;;;;;;;;;;;;;;15.28;51.32;101030.13;5033702;28;19923;-68
2022/04/25 03:33:35;;;;;;;;;;;;;;;15.39;50.42;101033.78;5034059;28;19920;-70
2022/04/25 03:36:01;;;;;;;;;;;;;;;15.42;50.84;101030.59;5034730;28;20068;-68
2022/04/25 03:38:26;;;;;;;;;;;;;;;14.88;52.01;101045.78;5034100;28;20016;-67
2022/04/25 03:40:52;;;;;;;;;;;;;;;14.77;53.28;101042.13;5048841;28;19921;-70
2022/04/25 03:43:17;;;;;;;;;;;;;;;15.43;51.26;101040.38;5034033;28;19928;-68
2022/04/25 03:45:43;;;;;;;;;;;;;;;15.70;50.77;101038.53;5033791;28;19920;-68
2022/04/25 03:48:08;;;;;;;;;;;;;;;15.92;50.55;101042.00;5034243;28;19920;-70
2022/04/25 03:50:34;;;;;;;;;;;;;;;15.98;49.80;101040.97;5033770;28;19913;-69
2022/04/25 03:53:06;;;;;;;;;;;;;;;15.62;50.92;101041.69;5033838;28;19964;-67
2022/04/25 03:58:15;;;;;;;;;;;;;;;15.97;49.52;101039.34;5033601;28;19924;-69
2022/04/25 04:00:41;;;;;;;;;;;;;;;15.97;49.37;101047.47;5032430;28;19913;-66
2022/04/25 04:03:06;;;;;;;;;;;;;;;15.49;50.40;101044.75;5032819;28;19948;-69
2022/04/25 04:05:32;;;;;;;;;;;;;;;15.62;50.21;101047.09;5033159;28;19917;-69
2022/04/25 04:07:57;;;;;;;;;;;;;;;15.48;50.45;101045.84;5033224;28;19917;-67
2022/04/25 04:10:23;;;;;;;;;;;;;;;15.51;50.24;101056.16;5033414;28;20300;-68
2022/04/25 04:12:48;;;;;;;;;;;;;;;15.29;50.75;101066.16;5033052;28;19923;-68
2022/04/25 04:15:14;;;;;;;;;;;;;;;15.38;50.46;101056.50;5031522;28;20514;-68
2022/04/25 04:17:39;;;;;;;;;;;;;;;15.61;50.54;101053.56;5033065;28;19921;-67
2022/04/25 04:20:05;;;;;;;;;;;;;;;15.57;50.41;101060.56;5030459;28;20362;-67
2022/04/25 04:22:32;;;;;;;;;;;;;;;15.50;50.65;101060.78;5017039;28;19956;-69
2022/04/25 04:25:01;;;;;;;;;;;;;;;15.41;50.59;101069.56;5033233;28;20000;-70
2022/04/25 04:27:31;;;;;;;;;;;;;;;15.00;52.01;101073.56;5033161;28;20011;-68
2022/04/25 04:29:57;;;;;;;;;;;;;;;15.52;50.64;101072.19;5043607;28;19925;-69
2022/04/25 04:32:22;;;;;;;;;;;;;;;14.48;52.75;101077.63;5032813;28;19958;-70
2022/04/25 04:34:48;;;;;;;;;;;;;;;14.75;52.25;101078.59;5032673;28;19983;-70
2022/04/25 04:37:13;;;;;;;;;;;;;;;15.34;50.26;101074.31;5032937;28;19960;-68
2022/04/25 04:39:39;;;;;;;;;;;;;;;15.70;49.15;101071.84;5033213;28;19948;-70
2022/04/25 04:42:04;;;;;;;;;;;;;;;15.41;49.79;101081.19;5032471;28;19963;-70
2022/04/25 04:44:30;;;;;;;;;;;;;;;15.85;48.91;101076.63;5047199;28;19928;-68
2022/04/25 04:46:55;;;;;;;;;;;;;;;15.71;48.89;101080.78;5032015;28;19970;-69
2022/04/25 04:49:20;;;;;;;;;;;;;;;14.57;51.71;101087.78;5032990;28;19963;-67
2022/04/25 04:51:45;;;;;;;;;;;;;;;14.83;50.40;101092.56;5032812;28;20373;-68
2022/04/25 04:54:11;;;;;;;;;;;;;;;15.54;48.83;101093.59;5033174;28;19948;-67
2022/04/25 04:56:36;;;;;;;;;;;;;;;15.23;49.41;101097.75;5033091;28;19924;-68
2022/04/25 04:59:02;;;;;;;;;;;;;;;15.27;48.83;101103.47;5032867;28;19967;-69
2022/04/25 05:01:27;;;;;;;;;;;;;;;15.12;49.35;101103.25;5032906;28;19979;-68
2022/04/25 05:03:58;;;;;;;;;;;;;;;15.10;49.10;101099.97;5032456;28;19943;-69
2022/04/25 05:06:26;;;;;;;;;;;;;;;15.17;48.54;101109.56;5032760;28;19967;-68
2022/04/25 05:08:51;;;;;;;;;;;;;;;15.26;48.89;101105.38;5033158;28;19913;-68
2022/04/25 05:11:17;;;;;;;;;;;;;;;15.55;48.04;101116.88;5032416;28;19924;-67
2022/04/25 05:13:42;;;;;;;;;;;;;;;15.04;48.83;101120.72;5032330;28;20373;-67
2022/04/25 05:16:07;;;;;;;;;;;;;;;15.87;46.74;101117.84;5032011;28;19952;-66
2022/04/25 05:18:33;;;;;;;;;;;;;;;15.48;47.65;101133.34;5032216;28;19916;-68
2022/04/25 05:20:59;;;;;;;;;;;;;;;16.10;46.29;101122.16;5032714;28;19913;-68
2022/04/25 05:23:25;;;;;;;;;;;;;;;15.73;46.80;101127.41;5031962;28;19928;-67
2022/04/25 05:25:50;;;;;;;;;;;;;;;16.07;45.89;101128.09;5029611;28;19935;-67
2022/04/25 05:28:15;;;;;;;;;;;;;;;15.70;46.84;101136.84;5032058;28;20410;-66
2022/04/25 05:30:42;;;;;;;;;;;;;;;15.88;46.29;101135.72;5046942;28;19913;-68
2022/04/25 05:33:07;;;;;;;;;;;;;;;15.18;47.84;101132.84;5032085;28;20003;-66
2022/04/25 05:35:33;;;;;;;;;;;;;;;15.80;46.50;101128.06;5031739;28;20005;-69
2022/04/25 05:37:59;;;;;;;;;;;;;;;15.86;46.49;101126.22;5030292;28;19963;-67
2022/04/25 05:40:27;;;;;;;;;;;;;;;16.16;45.75;101132.81;5031260;28;19913;-68
2022/04/25 05:42:55;;;;;;;;;;;;;;;15.81;46.01;101130.50;5031458;28;19921;-66
2022/04/25 05:45:21;;;;;;;;;;;;;;;15.25;47.84;101140.81;5031442;28;20384;-70
2022/04/25 05:47:47;;;;;;;;;;;;;;;15.98;45.99;101135.06;5032210;28;20000;-66
2022/04/25 05:52:57;;;;;;;;;;;;;;;15.98;45.69;101143.19;5031158;28;19940;-66
2022/04/25 05:55:23;;;;;;;;;;;;;;;16.43;44.41;101149.09;5029656;28;20670;-66
2022/04/25 05:57:48;;;;;;;;;;;;;;;15.90;45.82;101160.69;5031313;28;19921;-66
2022/04/25 06:00:14;;;;;;;;;;;;;;;15.74;46.49;101148.84;5032174;28;19996;-67
2022/04/25 06:02:40;;;;;;;;;;;;;;;16.33;45.20;101152.50;5031247;28;19917;-67
2022/04/25 06:05:06;;;;;;;;;;;;;;;15.57;46.69;101155.38;5030237;28;19932;-67
2022/04/25 06:07:34;;;;;;;;;;;;;;;16.25;45.13;101163.84;5031301;28;19920;-68
2022/04/25 06:10:03;;;;;;;;;;;;;;;15.93;45.89;101170.22;5031728;28;19997;-69
2022/04/25 06:12:32;;;;;;;;;;;;;;;15.55;46.42;101171.88;5029645;28;19925;-68
2022/04/25 06:14:57;;;;;;;;;;;;;;;16.27;45.69;101166.28;5031940;28;19987;-67
2022/04/25 06:17:22;;;;;;;;;;;;;;;16.42;44.92;101158.31;5030885;28;20307;-68
2022/04/25 06:19:48;;;;;;;;;;;;;;;16.77;44.11;101172.25;5031356;28;19920;-69
2022/04/25 06:22:13;;;;;;;;;;;;;;;16.60;44.62;101174.25;5031377;28;19924;-67
2022/04/25 06:24:39;;;;;;;;;;;;;;;15.87;45.83;101182.88;5031076;28;19966;-68
2022/04/25 06:27:05;;;;;;;;;;;;;;;16.23;45.56;101171.41;5031512;28;20462;-67
2022/04/25 06:29:31;;;;;;;;;;;;;;;16.44;44.51;101173.25;5031283;28;19913;-68
2022/04/25 06:31:56;;;;;;;;;;;;;;;16.21;45.25;101180.88;5030822;28;19923;-66
2022/04/25 06:34:22;;;;;;;;;;;;;;;16.35;44.63;101180.19;5030817;28;19963;-68
2022/04/25 06:36:50;;;;;;;;;;;;;;;16.32;44.86;101180.72;5031194;28;19917;-66
2022/04/25 06:39:15;;;;;;;;;;;;;;;16.77;43.86;101174.13;5028978;28;19919;-66
2022/04/25 06:41:41;;;;;;;;;;;;;;;16.40;44.29;101180.25;5030823;28;20385;-66
2022/04/25 06:44:06;;;;;;;;;;;;;;;15.95;45.74;101182.44;5030812;28;19944;-67
2022/04/25 06:46:31;;;;;;;;;;;;;;;16.67;44.00;101186.53;5030399;28;19944;-67
2022/04/25 06:51:40;;;;;;;;;;;;;;;16.37;44.05;101191.63;5031022;28;19939;-66
2022/04/25 06:54:07;;;;;;;;;;;;;;;15.73;45.21;101208.72;5031369;28;19905;-66
2022/04/25 06:56:32;;;;;;;;;;;;;;;16.06;44.52;101199.66;5030690;28;19979;-67
2022/04/25 06:58:57;;;;;;;;;;;;;;;16.77;43.12;101199.38;5030952;28;19917;-66
2022/04/25 07:01:23;;;;;;;;;;;;;;;16.77;42.98;101202.09;5030925;28;19948;-66
2022/04/25 07:03:48;;;;;;;;;;;;;;;16.25;44.58;101196.38;5030715;28;19929;-67
2022/04/25 07:06:13;;;;;;;;;;;;;;;16.35;43.58;101207.31;5029837;28;19917;-66
2022/04/25 07:08:38;;;;;;;;;;;;;;;16.66;43.34;101205.81;5034618;28;19917;-66
2022/04/25 07:11:04;;;;;;;;;;;;;;;16.64;43.42;101195.22;5034455;28;19970;-67
2022/04/25 07:13:29;;;;;;;;;;;;;;;16.87;42.73;101196.78;5034685;28;19913;-67
2022/04/25 07:15:54;;;;;;;;;;;;;;;16.66;43.58;101201.19;5034167;28;19917;-68
2022/04/25 07:18:19;;;;;;;;;;;;;;;16.96;42.38;101199.84;5034169;28;19913;-69
2022/04/25 07:20:44;;;;;;;;;;;;;;;16.49;43.78;101197.75;5034764;28;19962;-67
2022/04/25 07:28:50;;;;;;;;;;;;;;;16.91;42.95;101197.91;5033994;28;20012;-67
2022/04/25 07:31:16;;;;;;;;;;;;;;;17.47;41.54;101201.88;5032498;28;20314;-69
2022/04/25 07:33:43;;;;;;;;;;;;;;;16.95;42.57;101200.91;5033546;28;19952;-68
2022/04/25 07:36:08;;;;;;;;;;;;;;;16.64;43.07;101197.94;5034216;28;20387;-67
2022/04/25 07:38:33;;;;;;;;;;;;;;;16.60;43.26;101204.09;5033213;28;19999;-66
2022/04/25 07:41:00;;;;;;;;;;;;;;;17.22;42.17;101202.50;5032868;28;19968;-68
2022/04/25 07:43:25;;;;;;;;;;;;;;;17.19;41.90;101199.47;5033077;28;19936;-67
2022/04/25 07:45:51;;;;;;;;;;;;;;;16.87;42.59;101202.19;5033044;28;19929;-67
2022/04/25 07:48:16;;;;;;;;;;;;;;;16.53;43.60;101211.63;5033687;28;19952;-67
2022/04/25 07:50:44;;;;;;;;;;;;;;;17.41;42.08;101206.44;5032887;28;19944;-67
2022/04/25 07:53:09;;;;;;;;;;;;;;;17.72;41.17;101204.78;5033179;28;19924;-67
2022/04/25 07:55:35;;;;;;;;;;;;;;;17.36;41.71;101216.44;5033873;28;19913;-66
2022/04/25 07:58:01;;;;;;;;;;;;;;;17.55;41.03;101213.09;5033029;28;19940;-67
2022/04/25 08:00:27;;;;;;;;;;;;;;;17.97;40.59;101207.63;5033276;28;19913;-68
2022/04/25 08:02:52;;;;;;;;;;;;;;;17.38;41.92;101211.56;5033729;28;19917;-67
2022/04/25 08:05:18;;;;;;;;;;;;;;;17.24;41.69;101215.81;5033204;28;19929;-67
2022/04/25 08:07:43;;;;;;;;;;;;;;;17.13;41.88;101208.66;5033216;28;19917;-67
2022/04/25 08:10:08;;;;;;;;;;;;;;;17.58;40.88;101211.75;5031127;28;19913;-68
2022/04/25 08:18:01;;;;;;;;;;;;;;;17.59;41.04;101218.84;5012318;28;20289;-68
2022/04/25 08:20:36;;;;;;;;;;;;;;;18.02;39.89;101232.13;5013647;28;19914;-67
2022/04/25 08:23:03;;;;;;;;;;;;;;;18.34;39.30;101232.78;5013495;28;19929;-66
2022/04/25 08:25:30;;;;;;;;;;;;;;;18.05;39.64;101237.03;5013504;28;20005;-68
2022/04/25 08:27:56;;;;;;;;;;;;;;;17.25;41.08;101240.03;5026732;28;19917;-67
2022/04/25 08:30:21;;;;;;;;;;;;;;;17.76;40.37;101240.41;5032903;28;19917;-66
2022/04/25 08:32:47;;;;;;;;;;;;;;;17.68;40.53;101252.59;5039713;28;20262;-67
2022/04/25 08:35:13;;;;;;;;;;;;;;;17.64;40.77;101251.47;5032530;28;19963;-65
2022/04/25 08:37:39;;;;;;;;;;;;;;;17.83;40.50;101252.66;5032643;28;19927;-66
2022/04/25 08:40:04;;;;;;;;;;;;;;;16.93;41.93;101254.63;5031885;28;20415;-68
2022/04/25 08:42:31;;;;;;;;;;;;;;;17.87;40.22;101263.84;5032476;28;20047;-66
2022/04/25 08:44:57;;;;;;;;;;;;;;;17.88;39.97;101262.78;5031435;28;19971;-67
2022/04/25 08:47:26;;;;;;;;;;;;;;;17.36;40.92;101254.47;5032061;28;20465;-67
2022/04/25 08:49:51;;;;;;;;;;;;;;;17.46;40.97;101258.09;5032168;28;20034;-67
2022/04/25 08:52:17;;;;;;;;;;;;;;;17.28;42.21;101260.38;5031594;28;20483;-67
2022/04/25 08:54:43;;;;;;;;;;;;;;;17.43;43.01;101272.19;5030999;28;19924;-65
2022/04/25 08:57:09;;;;;;;;;;;;;;;17.23;43.12;101268.50;5024556;28;19967;-67
2022/04/25 08:59:34;;;;;;;;;;;;;;;17.49;43.06;101273.13;5025281;28;19917;-67
2022/04/25 09:01:59;;;;;;;;;;;;;;;17.54;42.50;101282.13;5028182;28;19917;-66
2022/04/25 09:04:24;;;;;;;;;;;;;;;17.31;43.17;101285.16;5027761;28;19960;-66
2022/04/25 09:06:55;;;;;;;;;;;;;;;17.38;42.75;101283.03;5028446;28;19947;-68
2022/04/25 09:09:21;;;;;;;;;;;;;;;17.36;42.63;101284.38;5027742;28;20340;-67
2022/04/25 09:14:31;;;;;;;;;;;;;;;17.63;41.94;101296.03;5027372;28;19923;-65
2022/04/25 09:16:56;;;;;;;;;;;;;;;16.75;44.51;101301.13;5027442;28;20015;-67
2022/04/25 09:19:22;;;;;;;;;;;;;;;16.99;43.74;101303.31;5027810;28;20460;-66
2022/04/25 09:21:47;;;;;;;;;;;;;;;17.09;43.78;101300.69;5027613;28;19920;-67
2022/04/25 09:24:19;;;;;;;;;;;;;;;16.97;45.20;101305.47;5027673;28;19917;-66
2022/04/25 09:26:44;;;;;;;;;;;;;;;17.00;44.50;101304.94;5027971;28;19921;-67
2022/04/25 09:29:11;;;;;;;;;;;;;;;17.25;44.74;101301.66;5027282;28;19924;-66
2022/04/25 09:31:46;;;;;;;;;;;;;;;17.66;43.49;101306.41;5027636;28;19917;-67
2022/04/25 09:34:15;;;;;;;;;;;;;;;16.64;44.98;101311.91;5027706;28;20396;-66
2022/04/25 09:36:47;;;;;;;;;;;;;;;17.38;43.97;101306.66;5028037;28;20034;-67
2022/04/25 09:39:41;;;;;;;;;;;;;;;16.44;45.28;101313.50;5028168;28;19913;-66
2022/04/25 09:42:07;;;;;;;;;;;;;;;17.27;43.61;101310.38;4926347;29;19922;-66
2022/04/25 09:44:52;;;;;;;;;;;;;;;16.96;44.50;101303.00;4927799;29;20503;-68
2022/04/25 09:47:30;;;;;;;;;;;;;;;16.86;44.37;101314.59;4925480;29;19918;-67
2022/04/25 09:50:03;;;;;;;;;;;;;;;17.70;42.32;101309.41;4925035;29;19926;-67
2022/04/25 09:52:29;;;;;;;;;;;;;;;17.73;42.60;101309.69;4928073;29;19927;-66
2022/04/25 09:54:56;;;;;;;;;;;;;;;17.54;43.38;101303.84;4925218;29;19915;-66
2022/04/25 09:57:29;;;;;;;;;;;;;;;16.89;44.48;101319.50;4928025;29;19927;-66
2022/04/25 09:59:56;;;;;;;;;;;;;;;17.83;42.08;101317.09;4928934;29;19918;-66
2022/04/25 10:02:22;;;;;;;;;;;;;;;17.30;43.52;101324.25;4912366;29;19919;-66
2022/04/25 10:04:47;;;;;;;;;;;;;;;17.43;43.62;101318.38;4928443;29;19923;-67
2022/04/25 10:07:13;;;;;;;;;;;;;;;17.74;42.53;101332.25;4928368;29;19965;-66
2022/04/25 10:09:39;;;;;;;;;;;;;;;17.75;41.86;101334.72;4929101;29;20339;-67
2022/04/25 10:12:05;;;;;;;;;;;;;;;18.06;42.02;101338.50;4928830;29;20347;-67
2022/04/25 10:14:30;;;;;;;;;;;;;;;17.98;41.99;101334.38;4928260;29;19915;-67
2022/04/25 10:16:56;;;;;;;;;;;;;;;17.82;42.03;101332.63;4928409;29;20382;-67
2022/04/25 10:19:26;;;;;;;;;;;;;;;17.83;42.03;101334.25;5012507;28;19921;-66
2022/04/25 10:21:52;;;;;;;;;;;;;;;18.23;40.82;101328.25;5028703;28;19917;-66
2022/04/25 10:24:20;;;;;;;;;;;;;;;17.95;41.78;101342.22;5029053;28;19944;-66
2022/04/25 10:26:46;;;;;;;;;;;;;;;17.75;42.16;101340.16;5028178;28;19925;-65
2022/04/25 10:29:15;;;;;;;;;;;;;;;18.55;40.63;101341.78;5027125;28;19917;-66
2022/04/25 10:31:42;;;;;;;;;;;;;;;18.35;40.74;101337.03;5026129;28;20340;-66
2022/04/25 10:34:08;;;;;;;;;;;;;;;18.30;41.20;101348.69;5025574;28;19920;-67
2022/04/25 10:36:39;;;;;;;;;;;;;;;18.21;41.38;101341.28;5026615;28;19913;-67
2022/04/25 10:39:14;;;;;;;;;;;;;;;18.30;40.81;101351.41;5027542;28;19913;-66
2022/04/25 10:44:33;;;;;;;;;;;;;;;17.91;42.04;101354.69;5030446;28;19928;-66
2022/04/25 10:47:05;;;;;;;;;;;;;;;17.22;43.38;101356.50;5029694;28;19921;-65
2022/04/25 10:49:31;;;;;;;;;;;;;;;18.39;40.67;101354.47;5030485;28;20294;-66
2022/04/25 10:51:56;;;;;;;;;;;;;;;17.11;43.23;101366.44;5029925;28;20062;-66
2022/04/25 10:54:23;;;;;;;;;;;;;;;16.97;44.31;101367.09;5031704;28;19909;-69
2022/04/25 10:57:06;;;;;;;;;;;;;;;17.34;43.56;101368.84;5032659;28;20031;-71
2022/04/25 10:59:32;;;;;;;;;;;;;;;17.27;43.32;101373.69;5031397;28;19921;-69
2022/04/25 11:01:57;;;;;;;;;;;;;;;17.62;42.31;101364.25;5031552;28;19924;-70
2022/04/25 11:04:43;;;;;;;;;;;;;;;17.63;42.42;101368.63;5032763;28;20376;-69
2022/04/25 11:07:22;;;;;;;;;;;;;;;18.15;41.39;101367.66;5033066;28;19921;-69
2022/04/25 11:09:48;;;;;;;;;;;;;;;18.19;41.67;101370.66;5031869;28;19924;-69
2022/04/25 11:12:13;;;;;;;;;;;;;;;18.36;40.68;101372.13;5031840;28;20435;-69
2022/04/25 11:14:55;;;;;;;;;;;;;;;18.21;42.08;101373.94;5031459;28;20011;-69
2022/04/25 11:17:20;;;;;;;;;;;;;;;18.56;40.89;101373.34;5030996;28;20403;-69
2022/04/25 11:19:48;;;;;;;;;;;;;;;18.32;41.20;101370.19;5030566;28;19921;-69
2022/04/25 11:22:32;;;;;;;;;;;;;;;18.32;41.04;101381.91;5026602;28;19924;-70
2022/04/25 11:25:17;;;;;;;;;;;;;;;18.24;41.40;101376.94;5029588;28;19943;-69
2022/04/25 11:28:01;;;;;;;;;;;;;;;18.31;41.21;101383.00;5029160;28;19924;-71
2022/04/25 11:30:26;;;;;;;;;;;;;;;17.73;42.29;101382.28;5029721;28;19928;-69
2022/04/25 11:32:52;;;;;;;;;;;;;;;17.53;42.32;101382.94;5030408;28;19908;-69
2022/04/25 11:35:22;;;;;;;;;;;;;;;18.47;40.93;101386.66;5029637;28;19917;-69
2022/04/25 11:37:48;;;;;;;;;;;;;;;18.11;40.48;101393.75;5029610;28;19917;-70
2022/04/25 11:40:14;;;;;;;;;;;;;;;18.56;39.97;101390.50;5030041;28;20344;-68
2022/04/25 11:42:40;;;;;;;;;;;;;;;18.20;41.22;101402.25;5028103;28;19952;-69
2022/04/25 11:45:06;;;;;;;;;;;;;;;18.11;41.92;101403.78;5030425;28;20365;-70
2022/04/25 11:47:32;;;;;;;;;;;;;;;18.39;40.65;101406.16;5028291;28;20449;-70
2022/04/25 11:49:59;;;;;;;;;;;;;;;18.36;40.37;101395.78;5028531;28;19917;-69
2022/04/25 11:52:26;;;;;;;;;;;;;;;18.67;40.23;101400.34;5029940;28;19925;-69
2022/04/25 11:54:51;;;;;;;;;;;;;;;18.85;39.86;101404.53;5029812;28;19917;-70
2022/04/25 11:57:16;;;;;;;;;;;;;;;18.59;39.99;101402.78;5030154;28;19927;-70
2022/04/25 11:59:41;;;;;;;;;;;;;;;19.06;38.97;101406.25;5029225;28;20388;-69
2022/04/25 12:02:07;;;;;;;;;;;;;;;18.75;39.26;101402.56;5029287;28;20008;-69
2022/04/25 12:04:35;;;;;;;;;;;;;;;18.12;40.82;101402.72;5027622;28;20015;-68
2022/04/25 12:07:01;;;;;;;;;;;;;;;17.68;41.70;101410.25;5029930;28;19917;-70
2022/04/25 12:17:44;;;;;;;;;;;;;;;18.51;39.92;101419.59;5029440;28;19927;-70
2022/04/25 12:20:11;;;;;;;;;;;;;;;18.68;39.57;101423.78;5029117;28;20381;-69
2022/04/25 12:22:37;;;;;;;;;;;;;;;18.59;39.16;101430.00;5029221;28;19986;-70
2022/04/25 12:25:17;;;;;;;;;;;;;;;18.75;39.38;101424.34;5028396;28;19932;-70
2022/04/25 12:28:01;;;;;;;;;;;;;;;18.47;40.16;101438.38;5026927;28;19921;-69
2022/04/25 12:30:28;;;;;;;;;;;;;;;18.54;39.85;101428.06;5028535;28;19988;-70
2022/04/25 12:33:06;;;;;;;;;;;;;;;18.65;40.01;101432.50;5028841;28;19909;-69
2022/04/25 12:35:31;;;;;;;;;;;;;;;19.16;39.37;101438.97;5028574;28;19920;-69
2022/04/25 12:37:56;;;;;;;;;;;;;;;19.18;38.72;101423.97;5028648;28;19917;-69
2022/04/25 12:40:22;;;;;;;;;;;;;;;19.63;37.94;101433.41;5028678;28;19913;-69
2022/04/25 12:42:50;;;;;;;;;;;;;;;19.37;37.76;101432.53;5028052;28;19936;-69
2022/04/25 12:45:16;;;;;;;;;;;;;;;19.50;37.97;101440.19;5028598;28;20301;-70
2022/04/25 12:47:45;;;;;;;;;;;;;;;19.93;36.96;101445.16;5027839;28;19925;-69
2022/04/25 12:50:11;;;;;;;;;;;;;;;19.96;36.74;101438.34;5026948;28;19939;-69
2022/04/25 12:52:50;;;;;;;;;;;;;;;19.46;37.81;101441.81;5028067;28;19925;-70
2022/04/25 12:55:15;;;;;;;;;;;;;;;18.92;39.05;101444.06;5028618;28;19936;-68
2022/04/25 12:57:50;;;;;;;;;;;;;;;19.52;38.38;101442.66;5026986;28;20312;-69
2022/04/25 13:00:15;;;;;;;;;;;;;;;19.85;37.42;101434.78;5028539;28;20004;-70
2022/04/25 13:02:41;;;;;;;;;;;;;;;19.38;38.25;101428.69;5027795;28;20070;-70
2022/04/25 13:05:07;;;;;;;;;;;;;;;19.81;37.08;101438.34;5027868;28;19928;-69
2022/04/25 13:07:38;;;;;;;;;;;;;;;19.90;36.96;101444.88;5027876;28;19922;-69
2022/04/25 13:10:04;;;;;;;;;;;;;;;19.90;37.13;101440.25;5028014;28;19996;-70
2022/04/25 13:12:33;;;;;;;;;;;;;;;19.37;37.80;101435.25;5029100;28;20019;-69
2022/04/25 13:14:59;;;;;;;;;;;;;;;19.30;37.96;101440.91;5028780;28;19917;-69